createdAt,value
2016-04-02T00:00:52.114Z,45.14
2016-04-02T00:01:52.273Z,45.14
2016-04-02T00:02:52.182Z,45.04
2016-04-02T00:03:52.169Z,45.04
2016-04-02T00:04:52.062Z,44.94
2016-04-02T00:05:51.987Z,44.94
2016-04-02T00:06:52.037Z,44.94
2016-04-02T00:07:51.945Z,44.94
2016-04-02T00:08:52.323Z,44.94
2016-04-02T00:09:52.106Z,44.94
2016-04-02T00:10:52.891Z,44.94
2016-04-02T00:11:52.175Z,44.94
2016-04-02T00:12:51.831Z,45.04
2016-04-02T00:13:51.787Z,44.94
2016-04-02T00:14:51.759Z,44.94
2016-04-02T00:15:51.979Z,45.04
2016-04-02T00:16:51.764Z,45.14
2016-04-02T00:17:51.876Z,45.04
2016-04-02T00:18:52.334Z,45.04
2016-04-02T00:19:52.930Z,45.23
2016-04-02T00:20:51.602Z,45.42
2016-04-02T00:21:51.950Z,45.42
2016-04-02T00:22:51.592Z,45.42
2016-04-02T00:23:51.548Z,45.32
2016-04-02T00:24:51.520Z,45.51
2016-04-02T00:25:51.475Z,45.23
2016-04-02T00:26:51.447Z,45.23
2016-04-02T00:27:51.512Z,45.32
2016-04-02T00:28:51.453Z,45.32
2016-04-02T00:29:51.455Z,45.42
2016-04-02T00:30:51.394Z,45.42
2016-04-02T00:31:51.335Z,45.32
2016-04-02T00:32:51.307Z,45.42
2016-04-02T00:33:51.309Z,45.32
2016-04-02T00:34:51.265Z,45.42
2016-04-02T00:35:51.226Z,45.42
2016-04-02T00:36:51.307Z,45.42
2016-04-02T00:37:51.184Z,45.61
2016-04-02T00:38:51.140Z,45.61
2016-04-02T00:39:51.112Z,45.61
2016-04-02T00:40:51.098Z,45.51
2016-04-02T00:41:51.399Z,45.7
2016-04-02T00:42:51.104Z,45.61
2016-04-02T00:43:51.044Z,45.8
2016-04-02T00:44:51.032Z,45.8
2016-04-02T00:45:50.987Z,45.8
2016-04-02T00:46:50.975Z,45.8
2016-04-02T00:47:50.930Z,45.61
2016-04-02T00:48:50.901Z,45.7
2016-04-02T00:49:50.936Z,45.7
2016-04-02T00:50:50.875Z,45.7
2016-04-02T00:51:50.831Z,45.7
2016-04-02T00:52:50.803Z,45.89
2016-04-02T00:53:50.774Z,45.8
2016-04-02T00:54:50.746Z,45.99
2016-04-02T00:55:50.717Z,45.8
2016-04-02T00:56:50.688Z,45.89
2016-04-02T00:57:50.660Z,45.99
2016-04-02T00:58:50.646Z,45.7
2016-04-02T01:00:50.652Z,45.89
2016-04-02T01:01:50.561Z,45.89
2016-04-02T01:02:50.564Z,45.8
2016-04-02T01:03:50.566Z,45.8
2016-04-02T01:04:50.523Z,45.89
2016-04-02T01:05:50.494Z,46.09
2016-04-02T01:06:50.450Z,46.09
2016-04-02T01:07:50.484Z,46.28
2016-04-02T01:08:50.408Z,46.09
2016-04-02T01:09:50.365Z,46.09
2016-04-02T01:10:50.352Z,46.37
2016-04-02T01:11:50.151Z,46.66
2016-04-02T01:12:50.310Z,46.75
2016-04-02T01:13:50.265Z,46.66
2016-04-02T01:14:50.253Z,46.66
2016-04-02T01:15:50.223Z,46.47
2016-04-02T01:16:50.243Z,46.66
2016-04-02T01:17:50.245Z,46.56
2016-04-02T01:18:50.169Z,46.37
2016-04-02T01:19:50.172Z,46.37
2016-04-02T01:20:50.097Z,46.56
2016-04-02T01:21:50.162Z,46.37
2016-04-02T01:22:50.087Z,46.28
2016-04-02T01:23:50.043Z,46.47
2016-04-02T01:24:50.842Z,46.56
2016-04-02T01:25:50.079Z,46.28
2016-04-02T01:26:50.003Z,46.66
2016-04-02T01:27:49.991Z,46.56
2016-04-02T01:28:49.978Z,46.47
2016-04-02T01:29:49.903Z,46.56
2016-04-02T01:30:50.218Z,46.63
2016-04-02T01:31:49.877Z,46.56
2016-04-02T01:32:49.817Z,46.54
2016-04-02T01:33:50.054Z,46.66
2016-04-02T01:34:49.916Z,46.75
2016-04-02T01:35:51.169Z,46.75
2016-04-02T01:36:50.015Z,46.92
2016-04-02T01:37:50.221Z,47.11
2016-04-02T01:38:49.802Z,47.02
2016-04-02T01:39:50.023Z,46.83
2016-04-02T01:40:49.823Z,46.92
2016-04-02T01:41:49.623Z,46.83
2016-04-02T01:42:49.531Z,47.11
2016-04-02T01:43:49.503Z,47.2
2016-04-02T01:44:50.240Z,47.3
2016-04-02T01:45:49.554Z,47.11
2016-04-02T01:46:49.542Z,47.2
2016-04-02T01:47:50.060Z,47.3
2016-04-02T01:48:49.625Z,47.02
2016-04-02T01:49:49.425Z,47.49
2016-04-02T01:50:49.349Z,47.49
2016-04-02T01:51:49.336Z,47.39
2016-04-02T01:52:48.698Z,47.58
2016-04-02T01:53:49.311Z,47.87
2016-04-02T01:54:49.266Z,47.68
2016-04-02T01:55:49.206Z,47.68
2016-04-02T01:56:49.281Z,47.78
2016-04-02T01:57:49.147Z,47.75
2016-04-02T01:58:49.106Z,47.87
2016-04-02T01:59:49.566Z,47.49
2016-04-02T02:00:49.198Z,48.06
2016-04-02T02:01:49.131Z,48.16
2016-04-02T02:02:49.020Z,48.16
2016-04-02T02:03:49.066Z,48.06
2016-04-02T02:04:49.173Z,48.06
2016-04-02T02:05:49.141Z,48.06
2016-04-02T02:06:49.500Z,47.97
2016-04-02T02:07:48.939Z,47.87
2016-04-02T02:08:49.121Z,48.13
2016-04-02T02:09:48.950Z,48.16
2016-04-02T02:10:48.842Z,48.16
2016-04-02T02:11:48.735Z,48.16
2016-04-02T02:12:48.816Z,48.13
2016-04-02T02:13:48.677Z,48.16
2016-04-02T02:14:48.921Z,48.03
2016-04-02T02:15:49.159Z,48.13
2016-04-02T02:16:48.787Z,48.23
2016-04-02T02:17:48.976Z,48.23
2016-04-02T02:18:48.572Z,48.23
2016-04-02T02:19:49.027Z,48.42
2016-04-02T02:20:48.623Z,48.03
2016-04-02T02:21:48.454Z,48.42
2016-04-02T02:22:48.550Z,48.32
2016-04-02T02:23:48.553Z,48.61
2016-04-02T02:24:48.525Z,48.42
2016-04-02T02:25:48.464Z,48.71
2016-04-02T02:26:48.451Z,48.71
2016-04-02T02:27:48.346Z,48.61
2016-04-02T02:28:48.332Z,48.61
2016-04-02T02:29:48.273Z,48.61
2016-04-02T02:30:48.416Z,48.71
2016-04-02T02:31:48.215Z,48.61
2016-04-02T02:32:48.218Z,48.51
2016-04-02T02:33:48.159Z,48.51
2016-04-02T02:34:48.131Z,48.8
2016-04-02T02:35:48.508Z,48.51
2016-04-02T02:36:48.136Z,48.8
2016-04-02T02:37:48.404Z,48.61
2016-04-02T02:38:48.156Z,48.71
2016-04-02T02:39:48.081Z,48.8
2016-04-02T02:40:48.114Z,48.51
2016-04-02T02:41:48.040Z,48.51
2016-04-02T02:42:48.105Z,48.9
2016-04-02T02:43:47.998Z,48.8
2016-04-02T02:44:48.283Z,48.9
2016-04-02T02:45:48.363Z,48.9
2016-04-02T02:46:47.819Z,48.9
2016-04-02T02:47:47.775Z,48.9
2016-04-02T02:48:47.074Z,48.99
2016-04-02T02:49:47.780Z,48.99
2016-04-02T02:50:47.720Z,49.08
2016-04-02T02:51:48.473Z,49.18
2016-04-02T02:52:47.679Z,49.08
2016-04-02T02:53:47.712Z,49.27
2016-04-02T02:54:48.137Z,48.9
2016-04-02T02:55:47.468Z,49.37
2016-04-02T02:56:47.549Z,49.18
2016-04-02T02:57:48.036Z,49.08
2016-04-02T02:58:47.507Z,49.46
2016-04-02T02:59:47.620Z,49.37
2016-04-02T03:00:47.481Z,49.37
2016-04-02T03:01:47.531Z,49.65
2016-04-02T03:02:47.471Z,49.65
2016-04-02T03:03:47.364Z,49.85
2016-04-02T03:04:47.462Z,49.65
2016-04-02T03:05:47.323Z,49.65
2016-04-02T03:06:47.279Z,49.65
2016-04-02T03:07:47.360Z,49.56
2016-04-02T03:08:47.363Z,49.56
2016-04-02T03:09:47.209Z,49.65
2016-04-02T03:10:47.212Z,49.56
2016-04-02T03:11:47.339Z,49.65
2016-04-02T03:12:47.186Z,49.46
2016-04-02T03:13:47.142Z,49.56
2016-04-02T03:14:47.113Z,49.37
2016-04-02T03:15:47.194Z,49.46
2016-04-02T03:16:47.118Z,49.37
2016-04-02T03:17:47.589Z,49.63
2016-04-02T03:18:47.046Z,49.35
2016-04-02T03:19:47.064Z,49.65
2016-04-02T03:20:46.942Z,49.54
2016-04-02T03:21:46.913Z,49.82
2016-04-02T03:22:46.916Z,49.65
2016-04-02T03:23:46.996Z,49.63
2016-04-02T03:24:46.858Z,49.82
2016-04-02T03:25:47.049Z,49.91
2016-04-02T03:26:46.801Z,49.91
2016-04-02T03:27:46.773Z,50.01
2016-04-02T03:28:47.526Z,50.2
2016-04-02T03:29:46.966Z,50.39
2016-04-02T03:30:46.922Z,50.29
2016-04-02T03:31:46.659Z,50.39
2016-04-02T03:32:46.959Z,50.48
2016-04-02T03:33:46.648Z,50.2
2016-04-02T03:34:46.604Z,50.1
2016-04-02T03:35:46.545Z,50.2
2016-04-02T03:36:46.532Z,50.29
2016-04-02T03:37:46.487Z,50.29
2016-04-02T03:38:46.490Z,50.29
2016-04-02T03:39:46.477Z,50.2
2016-04-02T03:40:46.448Z,50.2
2016-04-02T03:41:46.858Z,50.2
2016-04-02T03:42:46.407Z,50.39
2016-04-02T03:43:46.489Z,50.48
2016-04-02T03:44:46.381Z,50.58
2016-04-02T03:45:46.681Z,50.39
2016-04-02T03:46:46.231Z,50.29
2016-04-02T03:47:46.280Z,50.48
2016-04-02T03:48:46.658Z,50.39
2016-04-02T03:49:46.175Z,50.58
2016-04-02T03:50:46.147Z,50.39
2016-04-02T03:51:46.337Z,50.48
2016-04-02T03:52:46.246Z,50.39
2016-04-02T03:53:46.124Z,50.87
2016-04-02T03:54:46.157Z,50.77
2016-04-02T03:55:46.051Z,50.68
2016-04-02T03:56:46.054Z,50.87
2016-04-02T03:57:45.947Z,50.68
2016-04-02T03:58:46.044Z,50.58
2016-04-02T03:59:45.906Z,50.68
2016-04-02T04:00:45.877Z,50.58
2016-04-02T04:01:46.114Z,50.87
2016-04-02T04:02:45.882Z,51.06
2016-04-02T04:03:46.073Z,50.96
2016-04-02T04:04:45.888Z,51.06
2016-04-02T04:05:45.829Z,51.15
2016-04-02T04:06:45.738Z,51.34
2016-04-02T04:07:46.006Z,51.43
2016-04-02T04:08:45.727Z,51.53
2016-04-02T04:09:45.652Z,51.53
2016-04-02T04:10:45.717Z,51.34
2016-04-02T04:11:45.626Z,51.53
2016-04-02T04:12:46.347Z,51.34
2016-04-02T04:13:45.912Z,51.53
2016-04-02T04:14:45.603Z,51.53
2016-04-02T04:15:45.574Z,51.06
2016-04-02T04:16:45.639Z,50.96
2016-04-02T04:17:45.610Z,51.34
2016-04-02T04:18:45.519Z,51.91
2016-04-02T04:19:45.538Z,51.72
2016-04-02T04:20:45.603Z,51.43
2016-04-02T04:21:45.559Z,51.72
2016-04-02T04:22:45.733Z,51.62
2016-04-02T04:23:45.377Z,51.72
2016-04-02T04:24:45.395Z,51.62
2016-04-02T04:25:45.226Z,51.82
2016-04-02T04:26:46.275Z,51.62
2016-04-02T04:27:45.262Z,51.53
2016-04-02T04:28:45.249Z,51.53
2016-04-02T04:29:45.314Z,51.15
2016-04-02T04:30:45.098Z,51.7
2016-04-02T04:31:45.085Z,51.72
2016-04-02T04:32:45.104Z,51.82
2016-04-02T04:33:45.075Z,51.82
2016-04-02T04:34:45.001Z,51.82
2016-04-02T04:35:45.003Z,51.72
2016-04-02T04:36:44.959Z,51.7
2016-04-02T04:37:44.915Z,51.72
2016-04-02T04:38:44.901Z,51.72
2016-04-02T04:39:44.873Z,51.72
2016-04-02T04:40:44.844Z,51.53
2016-04-02T04:41:44.894Z,51.79
2016-04-02T04:42:44.943Z,51.79
2016-04-02T04:43:44.853Z,52.17
2016-04-02T04:44:44.934Z,52.17
2016-04-02T04:45:44.889Z,52.08
2016-04-02T04:46:44.704Z,52.17
2016-04-02T04:47:44.739Z,52.08
2016-04-02T04:48:44.850Z,52.17
2016-04-02T04:49:44.806Z,52.08
2016-04-02T04:50:44.793Z,51.91
2016-04-02T04:51:45.171Z,52.2
2016-04-02T04:52:44.970Z,51.98
2016-04-02T04:53:44.832Z,52.08
2016-04-02T04:54:44.663Z,52.26
2016-04-02T04:55:44.838Z,52.26
2016-04-02T04:56:44.652Z,52.08
2016-04-02T04:57:44.781Z,52.08
2016-04-02T04:58:44.471Z,52.17
2016-04-02T04:59:44.396Z,52.26
2016-04-02T05:00:44.336Z,52.26
2016-04-02T05:01:44.416Z,52.26
2016-04-02T05:02:44.263Z,52.26
2016-04-02T05:03:44.374Z,52.36
2016-04-02T05:04:44.284Z,52.26
2016-04-02T05:05:44.162Z,52.36
2016-04-02T05:06:44.148Z,52.36
2016-04-02T05:07:44.120Z,52.45
2016-04-02T05:08:44.169Z,52.36
2016-04-02T05:09:44.062Z,52.36
2016-04-02T05:10:44.065Z,52.26
2016-04-02T05:11:44.005Z,52.26
2016-04-02T05:12:43.978Z,52.36
2016-04-02T05:13:43.933Z,52.26
2016-04-02T05:14:43.936Z,52.26
2016-04-02T05:15:43.907Z,52.26
2016-04-02T05:16:43.894Z,52.55
2016-04-02T05:17:43.850Z,52.36
2016-04-02T05:18:43.836Z,52.17
2016-04-02T05:19:43.886Z,52.36
2016-04-02T05:20:43.795Z,52.36
2016-04-02T05:21:43.752Z,52.55
2016-04-02T05:22:43.723Z,52.55
2016-04-02T05:23:43.742Z,52.36
2016-04-02T05:24:43.681Z,52.45
2016-04-02T05:25:43.638Z,52.17
2016-04-02T05:26:43.827Z,52.36
2016-04-02T05:27:43.596Z,52.36
2016-04-02T05:28:43.567Z,52.36
2016-04-02T05:29:43.554Z,52.36
2016-04-02T05:30:43.588Z,52.45
2016-04-02T05:31:43.496Z,51.98
2016-04-02T05:32:43.468Z,51.98
2016-04-02T05:33:43.643Z,52.17
2016-04-02T05:34:43.473Z,52.08
2016-04-02T05:35:43.367Z,52.17
2016-04-02T05:36:43.338Z,52.36
2016-04-02T05:37:43.310Z,52.17
2016-04-02T05:38:43.298Z,52.01
2016-04-02T05:39:43.315Z,52.29
2016-04-02T05:40:43.256Z,51.82
2016-04-02T05:41:43.226Z,52.17
2016-04-02T05:42:43.214Z,52.08
2016-04-02T05:43:43.170Z,52.1
2016-04-02T05:44:43.188Z,52.1
2016-04-02T05:45:43.112Z,52.01
2016-04-02T05:46:43.114Z,52.1
2016-04-02T05:47:43.071Z,52.29
2016-04-02T05:48:43.027Z,52.2
2016-04-02T05:49:42.998Z,52.29
2016-04-02T05:50:42.986Z,52.29
2016-04-02T05:51:42.973Z,52.29
2016-04-02T05:52:42.928Z,52.29
2016-04-02T05:53:42.916Z,52.01
2016-04-02T05:54:42.903Z,52.1
2016-04-02T05:55:42.889Z,52.2
2016-04-02T05:56:42.861Z,52.2
2016-04-02T05:57:42.848Z,51.82
2016-04-02T05:58:42.804Z,51.91
2016-04-02T05:59:42.744Z,52.01
2016-04-02T06:00:42.747Z,52.01
2016-04-02T06:01:42.703Z,51.53
2016-04-02T06:02:42.752Z,51.72
2016-04-02T06:03:42.693Z,51.82
2016-04-02T06:04:42.602Z,51.82
2016-04-02T06:05:42.682Z,51.72
2016-04-02T06:06:42.607Z,52.1
2016-04-02T06:07:42.531Z,52.1
2016-04-02T06:08:42.534Z,51.84
2016-04-02T06:09:42.474Z,51.75
2016-04-02T06:10:42.476Z,51.56
2016-04-02T06:11:42.479Z,51.56
2016-04-02T06:12:42.388Z,51.56
2016-04-02T06:13:42.359Z,51.56
2016-04-02T06:14:42.347Z,51.18
2016-04-02T06:15:42.334Z,51.93
2016-04-02T06:16:42.306Z,51.75
2016-04-02T06:17:42.262Z,52.03
2016-04-02T06:18:42.248Z,52.13
2016-04-02T06:19:42.236Z,51.84
2016-04-02T06:20:42.175Z,52.03
2016-04-02T06:21:42.163Z,51.93
2016-04-02T06:22:42.134Z,51.93
2016-04-02T06:23:42.105Z,52.22
2016-04-02T06:24:42.092Z,51.93
2016-04-02T06:25:42.063Z,52.13
2016-04-02T06:26:42.019Z,52.13
2016-04-02T06:27:42.007Z,52.22
2016-04-02T06:28:41.977Z,51.93
2016-04-02T06:29:41.980Z,52.13
2016-04-02T06:30:41.921Z,51.93
2016-04-02T06:31:41.892Z,51.84
2016-04-02T06:32:41.864Z,52.03
2016-04-02T06:33:41.851Z,51.84
2016-04-02T06:34:42.010Z,51.84
2016-04-02T06:35:41.793Z,51.84
2016-04-02T06:36:41.765Z,51.93
2016-04-02T06:37:41.737Z,52.03
2016-04-02T06:38:41.709Z,52.22
2016-04-02T06:39:41.743Z,52.13
2016-04-02T06:40:41.652Z,51.84
2016-04-02T06:41:41.638Z,52.22
2016-04-02T06:42:41.595Z,51.97
2016-04-02T06:43:41.582Z,52.03
2016-04-02T06:44:41.584Z,52.32
2016-04-02T06:45:41.540Z,52.25
2016-04-02T06:46:41.526Z,52.03
2016-04-02T06:47:41.483Z,52.34
2016-04-02T06:48:41.470Z,52.25
2016-04-02T06:49:41.425Z,52.06
2016-04-02T06:50:41.397Z,52.15
2016-04-02T06:51:41.399Z,52.13
2016-04-02T06:52:41.402Z,51.87
2016-04-02T06:53:41.327Z,51.78
2016-04-02T06:54:41.314Z,51.58
2016-04-02T06:55:41.348Z,51.68
2016-04-02T06:56:55.100Z,51.68
2016-04-02T06:57:41.244Z,51.78
2016-04-02T06:58:41.246Z,51.68
2016-04-02T06:59:41.186Z,51.39
2016-04-02T07:00:41.158Z,51.49
2016-04-02T07:01:41.113Z,51.58
2016-04-02T07:02:41.210Z,51.04
2016-04-02T07:03:41.071Z,50.94
2016-04-02T07:04:41.137Z,50.75
2016-04-02T07:05:41.077Z,50.46
2016-04-02T07:06:41.002Z,50.46
2016-04-02T07:07:40.942Z,50.18
2016-04-02T07:08:40.930Z,50.4
2016-04-02T07:09:40.917Z,50.4
2016-04-02T07:10:40.888Z,50.49
2016-04-02T07:11:40.876Z,50.21
2016-04-02T07:12:40.893Z,50.3
2016-04-02T07:13:40.818Z,50.21
2016-04-02T07:14:40.821Z,50.59
2016-04-02T07:15:40.745Z,50.3
2016-04-02T07:16:41.482Z,50.68
2016-04-02T07:17:40.767Z,50.4
2016-04-02T07:18:40.831Z,50.21
2016-04-02T07:19:40.694Z,50.68
2016-04-02T07:20:40.743Z,50.3
2016-04-02T07:21:41.042Z,50.13
2016-04-02T07:22:40.592Z,50.23
2016-04-02T07:23:40.548Z,50.23
2016-04-02T07:24:40.597Z,50.32
2016-04-02T07:25:40.522Z,50.04
2016-04-02T07:26:40.805Z,50.13
2016-04-02T07:27:40.465Z,50.04
2016-04-02T07:28:40.452Z,50.13
2016-04-02T07:29:40.408Z,50.04
2016-04-02T07:30:40.395Z,49.66
2016-04-02T07:31:40.366Z,49.85
2016-04-02T07:32:40.385Z,49.66
2016-04-02T07:33:40.309Z,49.95
2016-04-02T07:35:40.237Z,49.68
2016-04-02T07:36:40.240Z,49.59
2016-04-02T07:37:40.195Z,49.4
2016-04-02T07:38:40.213Z,49.78
2016-04-02T07:39:40.168Z,49.68
2016-04-02T07:40:40.109Z,49.49
2016-04-02T07:41:40.315Z,49.37
2016-04-02T07:42:40.099Z,49.59
2016-04-02T07:43:40.087Z,49.68
2016-04-02T07:44:40.011Z,49.59
2016-04-02T07:45:40.076Z,49.78
2016-04-02T07:46:40.000Z,49.59
2016-04-02T07:47:40.222Z,49.87
2016-04-02T07:48:39.912Z,49.68
2016-04-02T07:49:39.899Z,49.68
2016-04-02T07:50:39.887Z,49.59
2016-04-02T07:51:39.858Z,49.78
2016-04-02T07:52:39.814Z,49.78
2016-04-02T07:53:39.911Z,49.78
2016-04-02T07:54:40.100Z,49.87
2016-04-02T07:55:39.775Z,49.97
2016-04-02T07:56:39.746Z,49.87
2016-04-02T07:57:39.717Z,49.8
2016-04-02T07:58:39.673Z,49.62
2016-04-02T07:59:39.644Z,49.62
2016-04-02T08:00:39.632Z,49.42
2016-04-02T08:01:39.619Z,49.13
2016-04-02T08:02:39.935Z,49.33
2016-04-02T08:03:39.547Z,49.13
2016-04-02T08:04:39.768Z,49.42
2016-04-02T08:05:39.614Z,49.13
2016-04-02T08:06:39.491Z,49.13
2016-04-02T08:07:39.448Z,49.42
2016-04-02T08:08:39.418Z,49.13
2016-04-02T08:09:39.468Z,49.52
2016-04-02T08:10:39.502Z,49.52
2016-04-02T08:11:39.395Z,49.33
2016-04-02T08:12:39.351Z,49.33
2016-04-02T08:13:39.307Z,49.23
2016-04-02T08:14:39.263Z,49.23
2016-04-02T08:15:39.360Z,49.33
2016-04-02T08:16:39.253Z,49.13
2016-04-02T08:17:39.240Z,49.13
2016-04-02T08:18:39.523Z,49.07
2016-04-02T08:19:39.198Z,49.35
2016-04-02T08:20:39.154Z,49.16
2016-04-02T08:21:39.204Z,49.35
2016-04-02T08:22:39.082Z,49.35
2016-04-02T08:23:39.444Z,49.26
2016-04-02T08:24:39.181Z,49.35
2016-04-02T08:25:39.074Z,49.16
2016-04-02T08:26:39.124Z,49.16
2016-04-02T08:27:38.954Z,49.07
2016-04-02T08:28:38.941Z,48.97
2016-04-02T08:29:38.913Z,49.07
2016-04-02T08:30:38.916Z,48.88
2016-04-02T08:31:38.856Z,48.88
2016-04-02T08:32:38.858Z,48.97
2016-04-02T08:33:38.846Z,48.97
2016-04-02T08:34:38.785Z,49.07
2016-04-02T08:35:38.773Z,48.8
2016-04-02T08:36:38.775Z,49.07
2016-04-02T08:37:38.699Z,48.8
2016-04-02T08:38:38.702Z,49.07
2016-04-02T08:39:38.659Z,48.8
2016-04-02T08:40:38.692Z,48.8
2016-04-02T08:41:38.602Z,48.99
2016-04-02T08:42:38.635Z,49.18
2016-04-02T08:43:38.560Z,49.18
2016-04-02T08:44:38.562Z,49.09
2016-04-02T08:45:38.581Z,48.8
2016-04-02T08:46:38.803Z,48.71
2016-04-02T08:47:38.477Z,49.18
2016-04-02T08:48:39.167Z,48.99
2016-04-02T08:49:38.498Z,48.8
2016-04-02T08:50:38.422Z,48.8
2016-04-02T08:51:38.362Z,48.9
2016-04-02T08:52:38.397Z,48.9
2016-04-02T08:54:38.699Z,48.8
2016-04-02T08:55:52.123Z,48.8
2016-04-02T08:56:52.236Z,48.8
2016-04-02T08:57:37.817Z,48.8
2016-04-02T08:58:38.241Z,48.99
2016-04-02T08:59:38.213Z,48.9
2016-04-02T09:00:38.168Z,48.8
2016-04-02T09:01:38.155Z,48.8
2016-04-02T09:02:38.126Z,48.8
2016-04-02T09:03:38.114Z,48.71
2016-04-02T09:04:38.116Z,48.73
2016-04-02T09:05:38.072Z,48.83
2016-04-02T09:06:38.027Z,49.09
2016-04-02T09:07:37.984Z,48.83
2016-04-02T09:08:37.954Z,49.02
2016-04-02T09:09:37.942Z,49.21
2016-04-02T09:10:37.945Z,49.11
2016-04-02T09:11:37.901Z,49.02
2016-04-02T09:12:37.873Z,49.11
2016-04-02T09:13:37.890Z,48.73
2016-04-02T09:14:37.831Z,48.93
2016-04-02T09:15:37.865Z,48.93
2016-04-02T09:16:37.837Z,48.73
2016-04-02T09:17:37.808Z,48.73
2016-04-02T09:18:37.748Z,48.54
2016-04-02T09:19:37.688Z,48.54
2016-04-02T09:20:37.706Z,48.73
2016-04-02T09:21:37.662Z,48.54
2016-04-02T09:22:37.680Z,48.93
2016-04-02T09:23:37.667Z,48.93
2016-04-02T09:24:37.592Z,48.64
2016-04-02T09:25:37.564Z,48.25
2016-04-02T09:26:37.661Z,48.44
2016-04-02T09:27:37.522Z,48.25
2016-04-02T09:28:37.509Z,48.28
2016-04-02T09:29:37.464Z,47.89
2016-04-02T09:30:37.577Z,47.99
2016-04-02T09:31:37.407Z,47.89
2016-04-02T09:32:37.410Z,47.8
2016-04-02T09:33:37.382Z,47.52
2016-04-02T09:34:37.400Z,47.23
2016-04-02T09:35:51.138Z,47.52
2016-04-02T09:36:37.312Z,47.32
2016-04-02T09:37:37.346Z,47.32
2016-04-02T09:38:37.254Z,46.84
2016-04-02T09:39:37.274Z,47.03
2016-04-02T09:40:37.244Z,47.13
2016-04-02T09:41:37.216Z,47.16
2016-04-02T09:42:37.171Z,47.25
2016-04-02T09:43:37.143Z,47.06
2016-04-02T09:44:37.099Z,47.16
2016-04-02T09:45:37.101Z,47.16
2016-04-02T09:46:37.323Z,47.06
2016-04-02T09:47:37.075Z,47.06
2016-04-02T09:48:37.048Z,46.67
2016-04-02T09:49:36.300Z,46.87
2016-04-02T09:50:37.021Z,46.87
2016-04-02T09:51:36.945Z,46.96
2016-04-02T09:52:36.933Z,46.67
2016-04-02T09:53:36.904Z,46.77
2016-04-02T09:54:36.906Z,46.67
2016-04-02T09:55:36.847Z,46.96
2016-04-02T09:56:36.834Z,46.87
2016-04-02T09:57:36.853Z,46.77
2016-04-02T09:58:36.793Z,46.58
2016-04-02T09:59:36.764Z,46.87
2016-04-02T10:00:36.798Z,46.58
2016-04-02T10:01:36.972Z,46.96
2016-04-02T10:02:36.678Z,47.06
2016-04-02T10:03:36.666Z,46.67
2016-04-02T10:04:36.778Z,46.98
2016-04-02T10:05:36.625Z,46.77
2016-04-02T10:06:36.799Z,46.89
2016-04-02T10:07:36.599Z,46.61
2016-04-02T10:08:36.554Z,46.61
2016-04-02T10:09:36.791Z,46.61
2016-04-02T10:10:36.528Z,46.61
2016-04-02T10:11:36.515Z,46.7
2016-04-02T10:12:36.502Z,46.7
2016-04-02T10:13:36.505Z,46.8
2016-04-02T10:14:36.493Z,46.61
2016-04-02T10:15:36.448Z,46.7
2016-04-02T10:16:36.388Z,46.7
2016-04-02T10:17:36.390Z,46.7
2016-04-02T10:18:36.346Z,46.7
2016-04-02T10:19:36.364Z,46.8
2016-04-02T10:20:36.836Z,46.89
2016-04-02T10:21:36.354Z,46.8
2016-04-02T10:22:36.311Z,46.51
2016-04-02T10:23:36.251Z,46.34
2016-04-02T10:24:36.269Z,46.25
2016-04-02T10:25:36.334Z,46.15
2016-04-02T10:26:36.133Z,46.05
2016-04-02T10:27:36.136Z,45.86
2016-04-02T10:28:36.108Z,45.86
2016-04-02T10:29:36.064Z,45.86
2016-04-02T10:30:36.176Z,45.48
2016-04-02T10:31:36.085Z,45.48
2016-04-02T10:32:36.072Z,45.38
2016-04-02T10:33:35.980Z,45.21
2016-04-02T10:34:35.999Z,45.4
2016-04-02T10:35:35.954Z,45.31
2016-04-02T10:36:35.894Z,45.21
2016-04-02T10:37:35.882Z,45.02
2016-04-02T10:38:35.057Z,44.83
2016-04-02T10:39:35.841Z,44.26
2016-04-02T10:40:35.859Z,44.83
2016-04-02T10:41:35.783Z,44.73
2016-04-02T10:42:35.802Z,44.54
2016-04-02T10:43:35.773Z,44.45
2016-04-02T10:44:35.729Z,44.45
2016-04-02T10:45:35.840Z,44.54
2016-04-02T10:46:35.671Z,44.73
2016-04-02T10:47:35.737Z,44.54
2016-04-02T10:48:35.631Z,44.26
2016-04-02T10:49:35.602Z,44.26
2016-04-02T10:50:35.620Z,44.26
2016-04-02T10:51:35.623Z,44.37
2016-04-02T10:52:35.547Z,44.37
2016-04-02T10:53:35.520Z,44.27
2016-04-02T10:54:35.506Z,44.27
2016-04-02T10:55:35.478Z,44.18
2016-04-02T10:56:35.324Z,44.09
2016-04-02T10:57:35.514Z,44.18
2016-04-02T10:58:35.454Z,44.18
2016-04-02T10:59:35.410Z,44.37
2016-04-02T11:00:35.600Z,44.37
2016-04-02T11:01:35.352Z,44.27
2016-04-02T11:02:35.361Z,44.37
2016-04-02T11:03:35.289Z,44.27
2016-04-02T11:04:35.297Z,44.47
2016-04-02T11:05:35.633Z,44.37
2016-04-02T11:06:35.217Z,44.18
2016-04-02T11:07:35.168Z,43.8
2016-04-02T11:08:35.152Z,44.11
2016-04-02T11:09:35.119Z,43.91
2016-04-02T11:10:35.148Z,44.01
2016-04-02T11:11:35.366Z,44.01
2016-04-02T11:12:35.070Z,43.82
2016-04-02T11:13:34.993Z,44.3
2016-04-02T11:14:34.978Z,44.2
2016-04-02T11:15:34.979Z,43.91
2016-04-02T11:16:34.933Z,44.11
2016-04-02T11:17:34.967Z,43.53
2016-04-02T11:18:34.892Z,43.73
2016-04-02T11:19:34.847Z,43.82
2016-04-02T11:20:34.881Z,43.82
2016-04-02T11:21:34.820Z,43.91
2016-04-02T11:22:34.792Z,43.73
2016-04-02T11:23:34.779Z,43.55
2016-04-02T11:24:34.751Z,43.34
2016-04-02T11:25:34.770Z,43.27
2016-04-02T11:26:34.850Z,43.46
2016-04-02T11:27:34.728Z,43.27
2016-04-02T11:28:34.698Z,42.98
2016-04-02T11:29:34.686Z,42.98
2016-04-02T11:30:34.704Z,42.88
2016-04-02T11:31:34.628Z,42.79
2016-04-02T11:32:34.678Z,42.79
2016-04-02T11:33:34.712Z,42.61
2016-04-02T11:34:34.809Z,42.52
2016-04-02T11:35:34.515Z,42.43
2016-04-02T11:36:37.549Z,42.33
2016-04-02T11:37:34.692Z,42.43
2016-04-02T11:38:34.647Z,42.52
2016-04-02T11:39:34.900Z,42.61
2016-04-02T11:40:35.809Z,42.61
2016-04-02T11:41:34.468Z,42.61
2016-04-02T11:42:34.471Z,42.71
2016-04-02T11:43:34.348Z,42.52
2016-04-02T11:44:34.461Z,42.13
2016-04-02T11:45:34.291Z,41.49
2016-04-02T11:46:34.451Z,41.49
2016-04-02T11:47:34.343Z,41.49
2016-04-02T11:48:34.221Z,41.67
2016-04-02T11:49:34.677Z,41.31
2016-04-02T11:50:34.165Z,40.64
2016-04-02T11:51:34.715Z,39.61
2016-04-02T11:52:36.279Z,38.76
2016-04-02T11:53:34.501Z,39.24
2016-04-02T11:54:34.206Z,39.62
2016-04-02T11:55:34.506Z,39.51
2016-04-02T11:56:34.352Z,39.91
2016-04-02T11:57:35.261Z,39.89
2016-04-02T11:58:35.514Z,39.22
2016-04-02T11:59:35.266Z,39.31
2016-04-02T12:00:34.660Z,39.53
2016-04-02T12:02:35.915Z,40.47
2016-04-02T12:03:34.056Z,40.85
2016-04-02T12:04:34.639Z,40.66
2016-04-02T12:05:34.830Z,40.47
2016-04-02T12:06:37.800Z,40.85
2016-04-02T12:07:34.019Z,41.22
2016-04-02T12:08:34.884Z,41.14
2016-04-02T12:09:33.868Z,40.85
2016-04-02T12:10:33.887Z,40.37
2016-04-02T12:12:36.442Z,39.33
2016-04-02T12:13:33.724Z,38.29
2016-04-02T12:14:33.804Z,38.02
2016-04-02T12:15:34.010Z,37.93
2016-04-02T12:16:37.327Z,38.02
2016-04-02T12:17:34.015Z,38.22
2016-04-02T12:18:33.613Z,38.6
2016-04-02T12:19:33.724Z,38.78
2016-04-02T12:20:35.370Z,39.16
2016-04-02T12:21:33.682Z,39.36
2016-04-02T12:22:34.563Z,39.54
2016-04-02T12:23:33.969Z,39.36
2016-04-02T12:24:33.471Z,39.74
2016-04-02T12:25:33.818Z,39.74
2016-04-02T12:26:33.617Z,40.12
2016-04-02T12:27:33.590Z,40.88
2016-04-02T12:28:33.670Z,40.58
2016-04-02T12:29:33.376Z,40.58
2016-04-02T12:30:33.504Z,40.78
2016-04-02T12:31:33.397Z,40.49
2016-04-02T12:32:33.384Z,40.78
2016-04-02T12:33:33.355Z,40.3
2016-04-02T12:34:33.373Z,39.91
2016-04-02T12:35:33.360Z,39.26
2016-04-02T12:36:33.457Z,38.89
2016-04-02T12:37:33.366Z,38.89
2016-04-02T12:38:33.228Z,38.99
2016-04-02T12:39:33.216Z,39.09
2016-04-02T12:40:33.202Z,38.89
2016-04-02T12:41:33.127Z,38.53
2016-04-02T12:42:33.082Z,38.43
2016-04-02T12:43:33.148Z,38.24
2016-04-02T12:44:33.088Z,38.14
2016-04-02T12:45:33.044Z,38.24
2016-04-02T12:46:33.922Z,37.68
2016-04-02T12:47:32.971Z,36.43
2016-04-02T12:48:33.005Z,35.78
2016-04-02T12:49:32.946Z,35.22
2016-04-02T12:50:33.229Z,35.22
2016-04-02T12:51:33.310Z,35.32
2016-04-02T12:52:32.921Z,35.9
2016-04-02T12:53:32.894Z,35.42
2016-04-02T12:54:32.865Z,35.22
2016-04-02T12:55:33.055Z,35.42
2016-04-02T12:56:32.902Z,35.8
2016-04-02T12:57:32.904Z,35.22
2016-04-02T12:58:32.798Z,34.95
2016-04-02T12:59:33.081Z,33.98
2016-04-02T13:00:32.787Z,33.34